Main page
METAR-TAF:

METAR-TAF

Airports :

Ohrid, Macedonia

Ohrid "St. Paul the Apostle" Airport

latitude: 41-07N, longitude: 020-48E, elevation: 760 m

Current weather observation

The report was made 32 minutes ago, at 09:30 UTC
Wind 4 kt from the South
Temperature 17°C
Humidity 59%
Pressure 1025 hPa
Visibility 10 km or more
Scattered clouds at a height of 5000 ft

METAR: LWOH 190930Z 18004KT 9999 SCT050 17/09 Q1025

Time: 12:02 (10:02 UTC)

Forecast

The report was made 4 hours and 32 minutes ago, at 05:30 UTC
Forecast valid from 19 at 06 UTC to 20 at 06 UTC
Wind 8 kt from the North/Northwest
Visibility 10 km or more
Broken clouds at a height of 4000 ft
Temporary
from 19 at 12 UTC to 19 at 16 UTC
Scattered clouds at a height of 3500 ft, Towering cumulus.

TAF: LWOH 190530Z 1906/2006 33008KT 9999 BKN040 TEMPO 1912/1916 SCT035TCU

Weather observations and forecasts of more than 4000 airports (METAR and TAF reports).

The available stations are represented by yellow and red dots on the map.

Hover mouse over dot to see the name of the station.

Then click to see weather observations and forecasts.

To change the map : click on the green buttons with a black cross to zoom in, on the green button with a dash to zoom out, or on the green arrows for adjacent maps.


METAR-TAF: